Miami, Florida
Traffic Map
Current Weather Conditions
Miami, Florida
Broken Clouds
Broken Clouds
30°
Feels Like: 35°
Wind Chill: 30° Ceiling: 22000
Heat Index: 35° Visibility: 10mi
Dew Point: 24° Wind: 8mph
Humidity: 72% Direction: 130° (SE)
Pressure: 30.07in Gusts: 0mph
Raw Report DataKMIA 011753Z 13007KT 10SM FEW025 FEW050 FEW130 BKN220 30/24 A3007 RMK AO2 SLP183 CB DSNT ALQDS 60000 T03000244 10300 20261 58003
Traffic Incident Summary
Active as of:
Severity:
Category:
InformationThere was an issue retrieving the traffic information for this location. Please try a different location or try again shortly.
Advertisements
Track Severe Weather on mobile